x

Nantucket Sound (44020) Wave Buoy

3:50pm - Thu 25th Aug 2016 All times are EDT. -4 hours from GMT.

  • Sig Wave height 1.3ft
  • Swell Direction
  • Peak Period 3s
  • Average Period 3s
  • Wind
    16mph, 18mph gusts
  • Sea Temp 75°f
  • Air Temp 74°f
  • Sea Pressure 1017.7mb
  • Nantucket Sound
  • Nantucket Sound

More Historic Weather Station data

Upgrade to MSW Pro to gain access to the past 30 days of data for over 8000 Wavebouys and Weather Stations around the globe.

Join Pro

Comparision Forecast

View Surf forecast
   
Thu 08/25 3:50pm 1.3ft 3s 3s 16 18 mph 1017.7mb 75f 74f
2:50pm 1.3ft 3s 3s 16 18 mph 1018.5mb 75f 74f
1:50pm 1.3ft 3s 3s 18 20 mph 1019mb 75f 74f
12:50pm 1.6ft 3s 3s 18 22 mph 1019.1mb 75f 74f
11:50am 1.3ft 2s 3s 16 20 mph 1019.6mb 74f 74f
10:50am 1.3ft 3s 3s 16 18 mph 1020.2mb 74f 74f
9:50am 1.3ft 3s 3s 16 18 mph 1020.5mb 74f 73f
8:50am 1.3ft 3s 3s 18 20 mph 1020.2mb 74f 74f
7:50am 1.3ft 3s 3s 18 20 mph 1020.3mb 75f 74f
6:50am 1.3ft 3s 3s 16 18 mph 1020.5mb 74f 73f
5:50am 1.3ft 3s 3s 16 18 mph 1020.6mb 74f 73f
4:50am 1.3ft 3s 3s 18 20 mph 1019.8mb 74f 73f
3:50am 1ft 2s 3s 16 20 mph 1020.2mb 75f 73f
2:50am 1ft 2s 3s 16 20 mph 1020.9mb 75f 73f
1:50am 1ft 2s 3s 16 20 mph 1021.1mb 75f 73f
12:50am 1.3ft 3s 3s 18 20 mph 1021.3mb 74f 73f
Wed 08/24 10:50pm 1.3ft 3s 3s 16 18 mph 1021.9mb 73f 73f
9:50pm 1.3ft 3s 3s 16 18 mph 1022.5mb 73f 74f
8:50pm 1.3ft 3s 3s 16 18 mph 1022.3mb 74f 74f
7:50pm 1ft 3s 3s 13 16 mph 1022.2mb 75f 74f
6:50pm 1.3ft 3s 3s 16 20 mph 1021.9mb 75f 74f
5:50pm 1.3ft 3s 3s 13 16 mph 1021.9mb 75f 74f
4:50pm 1.3ft 3s 3s 16 18 mph 1022.3mb 75f 74f
3:50pm 1.3ft 2s 3s 16 20 mph 1022.7mb 75f 74f
2:50pm 1ft 3s 3s 18 20 mph 1023mb 75f 73f
1:50pm 1ft 2s 3s 18 22 mph 1023.2mb 75f 73f
12:50pm 1ft 2s  -  16 18 mph 1023.7mb 75f 73f
11:50am 1.3ft 3s 3s 16 18 mph 1023.9mb 74f 73f
10:50am 1ft 3s 3s 16 18 mph 1024.5mb 73f 73f
9:50am 1ft 3s 3s 13 16 mph 1024.5mb 72f 73f
8:50am 1ft 3s 3s 13 16 mph 1024.5mb 73f 73f
7:50am 1.3ft 3s 3s 13 18 mph 1024.5mb 73f 73f
6:50am 1ft 3s 3s 13 16 mph 1024.3mb 74f 73f
5:50am 1.3ft 3s 3s 16 18 mph 1023.9mb 75f 72f
4:50am 1.3ft 3s 3s 16 18 mph 1023.9mb 75f 72f
3:50am 1ft 3s 3s 16 18 mph 1024mb 75f 72f
2:50am 1ft 2s 3s 16 18 mph 1024.1mb 75f 72f
1:50am 1ft 2s 3s 18 20 mph 1024.6mb 75f 72f
12:50am 1ft 2s 3s 16 20 mph 1024.5mb 74f 72f
Tue 08/23 11:50pm 1.3ft 3s 3s 18 20 mph 1024.6mb 74f 72f
10:50pm 1.6ft 3s 3s 18 20 mph 1024.4mb 73f 72f
9:50pm 1.6ft 4s 3s 18 22 mph 1024.2mb 72f 72f
8:50pm 1.6ft 4s 3s 16 18 mph 1024mb 72f 72f
7:50pm 1.6ft 3s 3s 18 20 mph 1023.4mb 73f 72f
6:50pm 1.3ft 4s 3s 18 20 mph 1023.5mb 75f 72f
5:50pm 1.6ft 3s 3s 18 22 mph 1023.5mb 76f 73f
4:50pm 1.6ft 3s 3s 16 18 mph 1023.7mb 76f 71f
3:50pm 1ft 4s 3s 16 18 mph 1023.8mb 76f 71f
2:50pm 0.7ft  -  4s 13 16 mph 1024.4mb 76f 71f
1:50pm 0.7ft  -  4s 9 11 mph 1025mb 76f 71f
12:50pm 0.7ft  -  3s 4
mph
1025.2mb 76f 71f
11:50am 1ft 2s 3s 2 4 mph 1025.5mb 75f 70f
10:50am 1.3ft 3s 3s 9
mph
1025.5mb 73f 70f
9:50am 1.3ft 3s 3s 9 11 mph 1025.2mb 72f 69f
8:50am 1.6ft 3s 3s 13 16 mph 1024.5mb 71f 68f
7:50am 1.3ft 3s 3s 16 18 mph 1024mb 72f 67f
6:50am 1.6ft 3s 3s 18 20 mph 1023.3mb 73f 68f
4:50am 2ft 3s 3s 18 20 mph 1021.8mb 75f 68f
3:50am 2ft 3s 3s 18 20 mph 1021.5mb 75f 68f
2:50am 2.5ft 3s 3s 16 22 mph 1021.3mb 75f 69f
1:50am 2ft 3s 3s 20 25 mph 1021.1mb 75f 69f
12:50am 2.5ft 3s 3s 20 25 mph 1020.5mb 76f 70f
Mon 08/22 11:50pm 2.5ft 4s 3s 20 27 mph 1020mb 75f 71f
10:50pm 2.5ft 4s 4s 20 25 mph 1019.5mb 74f 71f
9:50pm 3.5ft 4s 4s 22 29 mph 1018.4mb 73f 71f
8:50pm 3ft 4s 4s 25 29 mph 1017.2mb 73f 72f
7:50pm 2.5ft 4s 4s 27 31 mph 1015.5mb 73f 72f
6:50pm 2.5ft 4s 4s 22 27 mph 1014mb 74f 75f
5:50pm 2ft 3s 3s 18 22 mph 1013.1mb 76f 76f
4:50pm 1.3ft 3s 3s 13 18 mph 1012.4mb 77f 76f
3:50pm 1.3ft 2s 3s 11 13 mph 1011.7mb 76f 76f
2:50pm 1.3ft 2s 3s 7 9 mph 1011.3mb 76f 76f
1:50pm 1.3ft 3s 3s 9 11 mph 1011.1mb 76f 75f
12:50pm 1ft 2s 3s 13 18 mph 1010.7mb 76f 76f
11:50am 1.3ft 3s 3s 11 13 mph 1010.6mb 76f 75f
10:50am 1.6ft 3s 3s 13 16 mph 1010.4mb 76f 73f
9:50am 1.3ft 3s 3s 18 20 mph 1009.9mb 74f 72f
8:50am 1.6ft 3s 3s 16 18 mph 1009.2mb 73f 71f
7:50am 1.3ft 3s 3s 11 13 mph 1008.8mb 73f 72f
6:50am 1.3ft 3s 3s 11 16 mph 1008.4mb 74f 74f
5:50am 1.3ft 3s 3s 18 20 mph 1007.2mb 75f 75f
4:50am 1.6ft 3s 3s 18 22 mph 1007mb 76f 76f
3:50am 1.6ft 3s 3s 18 22 mph 1007.4mb 76f 76f
2:50am 1.3ft 3s 3s 16 18 mph 1008mb 76f 76f
1:50am 1ft 2s 3s 16 18 mph 1008.5mb 76f 74f
12:50am 0.7ft  -  3s 13
mph
1009.2mb 76f 74f
Sun 08/21 10:50pm 0.7ft  -  3s 11 13 mph 1009.9mb 76f 73f
9:50pm 1ft 5s 3s 11 13 mph 1010.6mb 75f 72f
8:50pm 1ft 3s 3s 11
mph
1011.5mb 74f 71f